sensor_id;sensor_type;location;lat;lon;timestamp;temperature;humidity
36594;DHT22;22603;47.900;8.146;2022-11-20T00:01:08;2.70;99.90
36594;DHT22;22603;47.900;8.146;2022-11-20T00:03:56;2.60;99.90
36594;DHT22;22603;47.900;8.146;2022-11-20T00:06:46;2.60;99.90
36594;DHT22;22603;47.900;8.146;2022-11-20T00:09:35;2.60;99.90
36594;DHT22;22603;47.900;8.146;2022-11-20T00:12:22;2.70;99.90
36594;DHT22;22603;47.900;8.146;2022-11-20T00:15:09;2.60;99.90
36594;DHT22;22603;47.900;8.146;2022-11-20T00:17:57;2.70;99.90
36594;DHT22;22603;47.900;8.146;2022-11-20T00:20:44;2.70;99.90
36594;DHT22;22603;47.900;8.146;2022-11-20T00:23:33;2.70;99.90
36594;DHT22;22603;47.900;8.146;2022-11-20T00:26:24;2.70;99.90
36594;DHT22;22603;47.900;8.146;2022-11-20T00:29:11;2.70;99.90
36594;DHT22;22603;47.900;8.146;2022-11-20T00:31:58;2.70;99.90
36594;DHT22;22603;47.900;8.146;2022-11-20T00:34:45;2.70;99.90
36594;DHT22;22603;47.900;8.146;2022-11-20T00:37:31;2.70;99.90
36594;DHT22;22603;47.900;8.146;2022-11-20T00:40:18;2.70;99.90
36594;DHT22;22603;47.900;8.146;2022-11-20T00:43:07;2.80;99.90
36594;DHT22;22603;47.900;8.146;2022-11-20T00:45:57;2.80;99.90
36594;DHT22;22603;47.900;8.146;2022-11-20T00:48:45;2.90;99.90
36594;DHT22;22603;47.900;8.146;2022-11-20T00:51:32;2.90;99.90
36594;DHT22;22603;47.900;8.146;2022-11-20T00:54:19;2.90;99.90
36594;DHT22;22603;47.900;8.146;2022-11-20T00:57:07;2.80;99.90
36594;DHT22;22603;47.900;8.146;2022-11-20T00:59:55;2.90;99.90
36594;DHT22;22603;47.900;8.146;2022-11-20T01:02:42;2.90;99.90
36594;DHT22;22603;47.900;8.146;2022-11-20T01:05:29;2.80;99.90
36594;DHT22;22603;47.900;8.146;2022-11-20T01:08:20;2.80;99.90
36594;DHT22;22603;47.900;8.146;2022-11-20T01:11:09;2.80;99.90
36594;DHT22;22603;47.900;8.146;2022-11-20T01:13:58;2.70;99.90
36594;DHT22;22603;47.900;8.146;2022-11-20T01:16:49;2.70;99.90
36594;DHT22;22603;47.900;8.146;2022-11-20T01:19:37;2.70;99.90
36594;DHT22;22603;47.900;8.146;2022-11-20T01:22:23;2.80;99.90
36594;DHT22;22603;47.900;8.146;2022-11-20T01:25:11;2.80;99.90
36594;DHT22;22603;47.900;8.146;2022-11-20T01:27:58;2.80;99.90
36594;DHT22;22603;47.900;8.146;2022-11-20T01:30:45;2.80;99.90
36594;DHT22;22603;47.900;8.146;2022-11-20T01:33:33;2.80;99.90
36594;DHT22;22603;47.900;8.146;2022-11-20T01:36:22;2.80;99.90
36594;DHT22;22603;47.900;8.146;2022-11-20T01:39:12;2.80;99.90
36594;DHT22;22603;47.900;8.146;2022-11-20T01:42:00;2.70;99.90
36594;DHT22;22603;47.900;8.146;2022-11-20T01:48:28;2.70;99.90
36594;DHT22;22603;47.900;8.146;2022-11-20T01:51:23;2.70;99.90
36594;DHT22;22603;47.900;8.146;2022-11-20T01:54:13;2.80;99.90
36594;DHT22;22603;47.900;8.146;2022-11-20T01:57:02;2.80;99.90
36594;DHT22;22603;47.900;8.146;2022-11-20T01:59:54;2.80;99.90
36594;DHT22;22603;47.900;8.146;2022-11-20T02:02:46;2.70;99.90
36594;DHT22;22603;47.900;8.146;2022-11-20T02:05:38;2.70;99.90
36594;DHT22;22603;47.900;8.146;2022-11-20T02:08:28;2.80;99.90
36594;DHT22;22603;47.900;8.146;2022-11-20T02:11:15;2.80;99.90
36594;DHT22;22603;47.900;8.146;2022-11-20T02:14:02;2.70;99.90
36594;DHT22;22603;47.900;8.146;2022-11-20T02:16:49;2.70;99.90
36594;DHT22;22603;47.900;8.146;2022-11-20T02:19:36;2.70;99.90
36594;DHT22;22603;47.900;8.146;2022-11-20T02:22:30;2.60;99.90
36594;DHT22;22603;47.900;8.146;2022-11-20T02:25:19;2.60;99.90
36594;DHT22;22603;47.900;8.146;2022-11-20T02:28:07;2.50;99.90
36594;DHT22;22603;47.900;8.146;2022-11-20T02:30:54;2.50;99.90
36594;DHT22;22603;47.900;8.146;2022-11-20T02:33:41;2.50;99.90
36594;DHT22;22603;47.900;8.146;2022-11-20T02:36:29;2.40;99.90
36594;DHT22;22603;47.900;8.146;2022-11-20T02:39:17;2.30;99.90
36594;DHT22;22603;47.900;8.146;2022-11-20T02:42:07;2.30;99.90
36594;DHT22;22603;47.900;8.146;2022-11-20T02:44:54;2.10;99.90
36594;DHT22;22603;47.900;8.146;2022-11-20T02:47:41;2.10;99.90
36594;DHT22;22603;47.900;8.146;2022-11-20T02:50:28;2.10;99.90
36594;DHT22;22603;47.900;8.146;2022-11-20T02:53:15;1.90;99.90
36594;DHT22;22603;47.900;8.146;2022-11-20T02:56:02;1.80;99.90
36594;DHT22;22603;47.900;8.146;2022-11-20T02:58:50;1.70;99.90
36594;DHT22;22603;47.900;8.146;2022-11-20T03:01:37;1.50;99.90
36594;DHT22;22603;47.900;8.146;2022-11-20T03:04:24;1.50;99.90
36594;DHT22;22603;47.900;8.146;2022-11-20T03:07:11;1.30;99.90
36594;DHT22;22603;47.900;8.146;2022-11-20T03:09:59;1.20;99.90
36594;DHT22;22603;47.900;8.146;2022-11-20T03:12:47;1.10;99.90
36594;DHT22;22603;47.900;8.146;2022-11-20T03:15:35;1.00;99.90
36594;DHT22;22603;47.900;8.146;2022-11-20T03:18:23;1.00;99.90
36594;DHT22;22603;47.900;8.146;2022-11-20T03:21:11;0.90;99.90
36594;DHT22;22603;47.900;8.146;2022-11-20T03:23:59;0.80;99.90
36594;DHT22;22603;47.900;8.146;2022-11-20T03:26:45;0.80;99.90
36594;DHT22;22603;47.900;8.146;2022-11-20T03:29:32;0.70;99.90
36594;DHT22;22603;47.900;8.146;2022-11-20T03:32:20;0.70;99.90
36594;DHT22;22603;47.900;8.146;2022-11-20T03:35:08;0.60;99.90
36594;DHT22;22603;47.900;8.146;2022-11-20T03:37:55;0.50;99.90
36594;DHT22;22603;47.900;8.146;2022-11-20T03:40:43;0.50;99.90
36594;DHT22;22603;47.900;8.146;2022-11-20T03:43:31;0.50;99.90
36594;DHT22;22603;47.900;8.146;2022-11-20T03:46:18;0.50;99.90
36594;DHT22;22603;47.900;8.146;2022-11-20T03:49:06;0.50;99.90
36594;DHT22;22603;47.900;8.146;2022-11-20T03:51:54;0.50;99.90
36594;DHT22;22603;47.900;8.146;2022-11-20T03:54:41;0.50;99.90
36594;DHT22;22603;47.900;8.146;2022-11-20T03:57:28;0.40;99.90
36594;DHT22;22603;47.900;8.146;2022-11-20T04:00:15;0.50;99.90
36594;DHT22;22603;47.900;8.146;2022-11-20T04:03:02;0.50;99.90
36594;DHT22;22603;47.900;8.146;2022-11-20T04:05:50;0.60;99.90
36594;DHT22;22603;47.900;8.146;2022-11-20T04:08:38;0.60;99.90
36594;DHT22;22603;47.900;8.146;2022-11-20T04:11:27;0.70;99.90
36594;DHT22;22603;47.900;8.146;2022-11-20T04:14:15;0.80;99.90
36594;DHT22;22603;47.900;8.146;2022-11-20T04:17:03;0.80;99.90
36594;DHT22;22603;47.900;8.146;2022-11-20T04:19:50;0.90;99.90
36594;DHT22;22603;47.900;8.146;2022-11-20T04:22:38;1.00;99.90
36594;DHT22;22603;47.900;8.146;2022-11-20T04:25:25;1.10;99.90
36594;DHT22;22603;47.900;8.146;2022-11-20T04:28:12;1.10;99.90
36594;DHT22;22603;47.900;8.146;2022-11-20T04:31:07;1.10;99.90
36594;DHT22;22603;47.900;8.146;2022-11-20T04:33:54;1.20;99.90
36594;DHT22;22603;47.900;8.146;2022-11-20T04:36:41;1.30;99.90
36594;DHT22;22603;47.900;8.146;2022-11-20T04:39:30;1.40;99.90
36594;DHT22;22603;47.900;8.146;2022-11-20T04:42:17;1.40;99.90
36594;DHT22;22603;47.900;8.146;2022-11-20T04:45:17;1.50;99.90
36594;DHT22;22603;47.900;8.146;2022-11-20T04:48:04;1.60;99.90
36594;DHT22;22603;47.900;8.146;2022-11-20T04:50:52;1.60;99.90
36594;DHT22;22603;47.900;8.146;2022-11-20T04:53:39;1.60;99.90
36594;DHT22;22603;47.900;8.146;2022-11-20T04:56:27;1.70;99.90
36594;DHT22;22603;47.900;8.146;2022-11-20T04:59:15;1.60;99.90
36594;DHT22;22603;47.900;8.146;2022-11-20T05:02:02;1.60;99.90
36594;DHT22;22603;47.900;8.146;2022-11-20T05:04:49;1.60;99.90
36594;DHT22;22603;47.900;8.146;2022-11-20T05:07:36;1.60;99.90
36594;DHT22;22603;47.900;8.146;2022-11-20T05:10:23;1.60;99.90
36594;DHT22;22603;47.900;8.146;2022-11-20T05:13:12;1.60;99.90
36594;DHT22;22603;47.900;8.146;2022-11-20T05:16:03;1.60;99.90
36594;DHT22;22603;47.900;8.146;2022-11-20T05:18:52;1.80;99.90
36594;DHT22;22603;47.900;8.146;2022-11-20T05:21:39;1.90;99.90
36594;DHT22;22603;47.900;8.146;2022-11-20T05:24:26;2.00;99.90
36594;DHT22;22603;47.900;8.146;2022-11-20T05:27:14;2.00;99.90
36594;DHT22;22603;47.900;8.146;2022-11-20T05:30:02;2.10;99.90
36594;DHT22;22603;47.900;8.146;2022-11-20T05:32:49;2.20;99.90
36594;DHT22;22603;47.900;8.146;2022-11-20T05:35:36;2.20;99.90
36594;DHT22;22603;47.900;8.146;2022-11-20T05:38:24;2.30;99.90
36594;DHT22;22603;47.900;8.146;2022-11-20T05:41:12;2.30;99.90
36594;DHT22;22603;47.900;8.146;2022-11-20T05:43:59;2.30;99.90
36594;DHT22;22603;47.900;8.146;2022-11-20T05:46:48;2.30;99.90
36594;DHT22;22603;47.900;8.146;2022-11-20T05:49:35;2.30;99.90
36594;DHT22;22603;47.900;8.146;2022-11-20T05:52:23;2.20;99.90
36594;DHT22;22603;47.900;8.146;2022-11-20T05:55:10;2.20;99.90
36594;DHT22;22603;47.900;8.146;2022-11-20T05:57:57;2.20;99.90
36594;DHT22;22603;47.900;8.146;2022-11-20T06:00:45;2.30;99.90
36594;DHT22;22603;47.900;8.146;2022-11-20T06:03:33;2.30;99.90
36594;DHT22;22603;47.900;8.146;2022-11-20T06:06:21;2.20;99.90
36594;DHT22;22603;47.900;8.146;2022-11-20T06:09:08;2.30;99.90
36594;DHT22;22603;47.900;8.146;2022-11-20T06:11:55;2.20;99.90
36594;DHT22;22603;47.900;8.146;2022-11-20T06:14:42;2.30;99.90
36594;DHT22;22603;47.900;8.146;2022-11-20T06:17:30;2.30;99.90
36594;DHT22;22603;47.900;8.146;2022-11-20T06:20:18;2.40;99.90
36594;DHT22;22603;47.900;8.146;2022-11-20T06:23:05;2.50;99.90
36594;DHT22;22603;47.900;8.146;2022-11-20T06:25:53;2.50;99.90
36594;DHT22;22603;47.900;8.146;2022-11-20T06:28:41;2.60;99.90
36594;DHT22;22603;47.900;8.146;2022-11-20T06:31:28;2.60;99.90
36594;DHT22;22603;47.900;8.146;2022-11-20T06:34:15;2.60;99.90
36594;DHT22;22603;47.900;8.146;2022-11-20T06:37:03;2.70;99.90
36594;DHT22;22603;47.900;8.146;2022-11-20T06:39:52;2.70;99.90
36594;DHT22;22603;47.900;8.146;2022-11-20T06:42:39;2.80;99.90
36594;DHT22;22603;47.900;8.146;2022-11-20T06:45:26;2.80;99.90
36594;DHT22;22603;47.900;8.146;2022-11-20T06:48:13;2.90;99.90
36594;DHT22;22603;47.900;8.146;2022-11-20T06:51:03;2.90;99.90
36594;DHT22;22603;47.900;8.146;2022-11-20T06:53:53;2.90;99.90
36594;DHT22;22603;47.900;8.146;2022-11-20T06:56:40;2.90;99.90
36594;DHT22;22603;47.900;8.146;2022-11-20T06:59:27;3.00;99.90
36594;DHT22;22603;47.900;8.146;2022-11-20T07:02:15;2.90;99.90
36594;DHT22;22603;47.900;8.146;2022-11-20T07:05:02;3.00;99.90
36594;DHT22;22603;47.900;8.146;2022-11-20T07:07:50;3.00;99.90
36594;DHT22;22603;47.900;8.146;2022-11-20T07:10:39;2.90;99.90
36594;DHT22;22603;47.900;8.146;2022-11-20T07:13:26;3.00;99.90
36594;DHT22;22603;47.900;8.146;2022-11-20T07:16:14;2.90;99.90
36594;DHT22;22603;47.900;8.146;2022-11-20T07:19:01;2.90;99.90
36594;DHT22;22603;47.900;8.146;2022-11-20T07:21:48;3.00;99.90
36594;DHT22;22603;47.900;8.146;2022-11-20T07:24:36;3.00;99.90
36594;DHT22;22603;47.900;8.146;2022-11-20T07:27:32;2.90;99.90
36594;DHT22;22603;47.900;8.146;2022-11-20T07:30:19;2.90;99.90
36594;DHT22;22603;47.900;8.146;2022-11-20T07:33:06;3.00;99.90
36594;DHT22;22603;47.900;8.146;2022-11-20T07:35:54;2.90;99.90
36594;DHT22;22603;47.900;8.146;2022-11-20T07:38:41;2.90;99.90
36594;DHT22;22603;47.900;8.146;2022-11-20T07:41:28;2.90;99.90
36594;DHT22;22603;47.900;8.146;2022-11-20T07:44:16;2.90;99.90
36594;DHT22;22603;47.900;8.146;2022-11-20T07:47:04;2.80;99.90
36594;DHT22;22603;47.900;8.146;2022-11-20T07:49:51;2.90;99.90
36594;DHT22;22603;47.900;8.146;2022-11-20T07:52:38;2.90;99.90
36594;DHT22;22603;47.900;8.146;2022-11-20T07:55:26;2.90;99.90
36594;DHT22;22603;47.900;8.146;2022-11-20T07:58:13;2.90;99.90
36594;DHT22;22603;47.900;8.146;2022-11-20T08:01:05;2.90;99.90
36594;DHT22;22603;47.900;8.146;2022-11-20T08:03:52;3.00;99.90
36594;DHT22;22603;47.900;8.146;2022-11-20T08:06:40;3.00;99.90
36594;DHT22;22603;47.900;8.146;2022-11-20T08:09:26;3.10;99.90
36594;DHT22;22603;47.900;8.146;2022-11-20T08:12:18;3.10;99.90
36594;DHT22;22603;47.900;8.146;2022-11-20T08:15:23;3.10;99.90
36594;DHT22;22603;47.900;8.146;2022-11-20T08:18:11;3.10;99.90
36594;DHT22;22603;47.900;8.146;2022-11-20T08:21:17;3.20;99.90
36594;DHT22;22603;47.900;8.146;2022-11-20T08:24:05;3.40;99.90
36594;DHT22;22603;47.900;8.146;2022-11-20T08:26:53;3.40;99.90
36594;DHT22;22603;47.900;8.146;2022-11-20T08:29:40;3.30;99.90
36594;DHT22;22603;47.900;8.146;2022-11-20T08:32:27;3.40;99.90
36594;DHT22;22603;47.900;8.146;2022-11-20T08:35:16;3.40;99.90
36594;DHT22;22603;47.900;8.146;2022-11-20T08:38:04;3.30;99.90
36594;DHT22;22603;47.900;8.146;2022-11-20T08:40:52;3.40;99.90
36594;DHT22;22603;47.900;8.146;2022-11-20T08:43:55;3.40;99.90
36594;DHT22;22603;47.900;8.146;2022-11-20T08:46:42;3.40;99.90
36594;DHT22;22603;47.900;8.146;2022-11-20T08:49:31;3.40;99.90
36594;DHT22;22603;47.900;8.146;2022-11-20T08:52:20;3.40;99.90
36594;DHT22;22603;47.900;8.146;2022-11-20T08:55:08;3.40;99.90
36594;DHT22;22603;47.900;8.146;2022-11-20T08:57:55;3.30;99.90
36594;DHT22;22603;47.900;8.146;2022-11-20T09:00:42;3.30;99.90
36594;DHT22;22603;47.900;8.146;2022-11-20T09:03:29;3.30;99.90
36594;DHT22;22603;47.900;8.146;2022-11-20T09:06:17;3.30;99.90
36594;DHT22;22603;47.900;8.146;2022-11-20T09:09:06;3.20;99.90
36594;DHT22;22603;47.900;8.146;2022-11-20T09:11:54;3.20;99.90
36594;DHT22;22603;47.900;8.146;2022-11-20T09:14:41;3.10;99.90
36594;DHT22;22603;47.900;8.146;2022-11-20T09:17:28;3.20;99.90
36594;DHT22;22603;47.900;8.146;2022-11-20T09:20:15;3.10;99.90
36594;DHT22;22603;47.900;8.146;2022-11-20T09:23:01;3.10;99.90
36594;DHT22;22603;47.900;8.146;2022-11-20T09:25:50;3.10;99.90
36594;DHT22;22603;47.900;8.146;2022-11-20T09:28:38;3.10;99.90
36594;DHT22;22603;47.900;8.146;2022-11-20T09:31:25;3.00;99.90
36594;DHT22;22603;47.900;8.146;2022-11-20T09:34:13;3.10;99.90
36594;DHT22;22603;47.900;8.146;2022-11-20T09:37:00;3.20;99.90
36594;DHT22;22603;47.900;8.146;2022-11-20T09:39:52;3.30;99.90
36594;DHT22;22603;47.900;8.146;2022-11-20T09:42:43;3.30;99.90
36594;DHT22;22603;47.900;8.146;2022-11-20T09:45:50;3.40;99.90
36594;DHT22;22603;47.900;8.146;2022-11-20T09:49:09;3.30;99.90
36594;DHT22;22603;47.900;8.146;2022-11-20T09:52:13;3.40;99.90
36594;DHT22;22603;47.900;8.146;2022-11-20T09:55:08;3.50;99.90
36594;DHT22;22603;47.900;8.146;2022-11-20T09:57:59;3.60;99.90
36594;DHT22;22603;47.900;8.146;2022-11-20T10:00:47;3.60;99.90
36594;DHT22;22603;47.900;8.146;2022-11-20T10:03:39;3.60;99.90
36594;DHT22;22603;47.900;8.146;2022-11-20T10:06:31;3.70;99.90
36594;DHT22;22603;47.900;8.146;2022-11-20T10:09:23;3.70;99.90
36594;DHT22;22603;47.900;8.146;2022-11-20T10:12:18;3.70;99.90
36594;DHT22;22603;47.900;8.146;2022-11-20T10:15:17;3.70;99.90
36594;DHT22;22603;47.900;8.146;2022-11-20T10:18:23;3.80;99.90
36594;DHT22;22603;47.900;8.146;2022-11-20T10:21:22;3.80;99.90
36594;DHT22;22603;47.900;8.146;2022-11-20T10:24:31;3.80;99.90
36594;DHT22;22603;47.900;8.146;2022-11-20T10:27:50;3.80;99.90
36594;DHT22;22603;47.900;8.146;2022-11-20T10:30:46;3.70;99.90
36594;DHT22;22603;47.900;8.146;2022-11-20T10:33:38;3.80;99.90
36594;DHT22;22603;47.900;8.146;2022-11-20T10:36:51;3.80;99.90
36594;DHT22;22603;47.900;8.146;2022-11-20T10:39:44;3.70;99.90
36594;DHT22;22603;47.900;8.146;2022-11-20T10:42:41;3.80;99.90
36594;DHT22;22603;47.900;8.146;2022-11-20T10:45:53;3.80;99.90
36594;DHT22;22603;47.900;8.146;2022-11-20T10:48:44;3.80;99.90
36594;DHT22;22603;47.900;8.146;2022-11-20T10:51:37;3.90;99.90
36594;DHT22;22603;47.900;8.146;2022-11-20T10:54:32;3.90;99.90
36594;DHT22;22603;47.900;8.146;2022-11-20T10:57:35;4.00;99.90
36594;DHT22;22603;47.900;8.146;2022-11-20T11:00:31;4.10;99.90
36594;DHT22;22603;47.900;8.146;2022-11-20T11:03:25;4.20;99.90
36594;DHT22;22603;47.900;8.146;2022-11-20T11:06:20;4.20;99.90
36594;DHT22;22603;47.900;8.146;2022-11-20T11:09:12;4.30;99.90
36594;DHT22;22603;47.900;8.146;2022-11-20T11:12:00;4.30;99.90
36594;DHT22;22603;47.900;8.146;2022-11-20T11:14:53;4.30;99.90
36594;DHT22;22603;47.900;8.146;2022-11-20T11:17:46;4.30;99.90
36594;DHT22;22603;47.900;8.146;2022-11-20T11:20:35;4.30;99.90
36594;DHT22;22603;47.900;8.146;2022-11-20T11:23:31;4.20;99.90
36594;DHT22;22603;47.900;8.146;2022-11-20T11:26:20;4.20;99.90
36594;DHT22;22603;47.900;8.146;2022-11-20T11:29:17;4.10;99.90
36594;DHT22;22603;47.900;8.146;2022-11-20T11:32:07;4.00;99.90
36594;DHT22;22603;47.900;8.146;2022-11-20T11:35:02;4.00;99.90
36594;DHT22;22603;47.900;8.146;2022-11-20T11:37:52;4.10;99.90
36594;DHT22;22603;47.900;8.146;2022-11-20T11:40:41;4.30;99.90
36594;DHT22;22603;47.900;8.146;2022-11-20T11:43:30;4.60;99.90
36594;DHT22;22603;47.900;8.146;2022-11-20T11:46:36;4.40;99.90
36594;DHT22;22603;47.900;8.146;2022-11-20T11:49:24;4.40;99.90
36594;DHT22;22603;47.900;8.146;2022-11-20T11:52:15;4.60;99.90
36594;DHT22;22603;47.900;8.146;2022-11-20T11:55:07;4.60;99.90
36594;DHT22;22603;47.900;8.146;2022-11-20T11:58:07;4.60;99.90
36594;DHT22;22603;47.900;8.146;2022-11-20T12:01:04;4.60;99.90
36594;DHT22;22603;47.900;8.146;2022-11-20T12:04:02;5.00;99.90
36594;DHT22;22603;47.900;8.146;2022-11-20T12:06:53;5.70;99.90
36594;DHT22;22603;47.900;8.146;2022-11-20T12:09:50;6.10;99.90
36594;DHT22;22603;47.900;8.146;2022-11-20T12:12:43;6.00;99.90
36594;DHT22;22603;47.900;8.146;2022-11-20T12:15:33;5.70;99.90
36594;DHT22;22603;47.900;8.146;2022-11-20T12:18:22;5.40;99.90
36594;DHT22;22603;47.900;8.146;2022-11-20T12:21:18;5.00;99.90
36594;DHT22;22603;47.900;8.146;2022-11-20T12:24:23;5.00;99.90
36594;DHT22;22603;47.900;8.146;2022-11-20T12:30:41;5.10;99.90
36594;DHT22;22603;47.900;8.146;2022-11-20T12:36:51;5.40;99.90
36594;DHT22;22603;47.900;8.146;2022-11-20T12:39:41;5.60;99.90
36594;DHT22;22603;47.900;8.146;2022-11-20T12:42:55;5.60;99.90
36594;DHT22;22603;47.900;8.146;2022-11-20T12:46:26;5.60;99.90
36594;DHT22;22603;47.900;8.146;2022-11-20T12:49:28;5.70;99.90
36594;DHT22;22603;47.900;8.146;2022-11-20T12:52:28;5.50;99.90
36594;DHT22;22603;47.900;8.146;2022-11-20T12:55:28;5.40;99.90
36594;DHT22;22603;47.900;8.146;2022-11-20T12:58:20;5.20;99.90
36594;DHT22;22603;47.900;8.146;2022-11-20T13:01:21;5.10;99.90
36594;DHT22;22603;47.900;8.146;2022-11-20T13:04:49;5.10;99.90
36594;DHT22;22603;47.900;8.146;2022-11-20T13:07:40;5.00;99.90
36594;DHT22;22603;47.900;8.146;2022-11-20T13:10:33;4.90;99.90
36594;DHT22;22603;47.900;8.146;2022-11-20T13:13:25;4.70;99.90
36594;DHT22;22603;47.900;8.146;2022-11-20T13:16:22;4.60;99.90
36594;DHT22;22603;47.900;8.146;2022-11-20T13:19:13;4.50;99.90
36594;DHT22;22603;47.900;8.146;2022-11-20T13:22:01;4.60;99.90
36594;DHT22;22603;47.900;8.146;2022-11-20T13:24:51;4.40;99.90
36594;DHT22;22603;47.900;8.146;2022-11-20T13:27:47;4.60;99.90
36594;DHT22;22603;47.900;8.146;2022-11-20T13:30:35;4.50;99.90
36594;DHT22;22603;47.900;8.146;2022-11-20T13:33:30;4.50;99.90
36594;DHT22;22603;47.900;8.146;2022-11-20T13:36:22;4.40;99.90
36594;DHT22;22603;47.900;8.146;2022-11-20T13:39:09;4.40;99.90
36594;DHT22;22603;47.900;8.146;2022-11-20T13:41:59;4.40;99.90
36594;DHT22;22603;47.900;8.146;2022-11-20T13:44:48;4.40;99.90
36594;DHT22;22603;47.900;8.146;2022-11-20T13:47:37;4.50;99.90
36594;DHT22;22603;47.900;8.146;2022-11-20T13:50:40;4.60;99.90
36594;DHT22;22603;47.900;8.146;2022-11-20T13:53:45;4.60;99.90
36594;DHT22;22603;47.900;8.146;2022-11-20T13:56:45;4.60;99.90
36594;DHT22;22603;47.900;8.146;2022-11-20T13:59:52;4.70;99.90
36594;DHT22;22603;47.900;8.146;2022-11-20T14:02:43;4.70;99.90
36594;DHT22;22603;47.900;8.146;2022-11-20T14:05:34;4.80;99.90
36594;DHT22;22603;47.900;8.146;2022-11-20T14:08:31;4.90;99.90
36594;DHT22;22603;47.900;8.146;2022-11-20T14:11:21;5.00;99.90
36594;DHT22;22603;47.900;8.146;2022-11-20T14:14:15;5.00;99.90
36594;DHT22;22603;47.900;8.146;2022-11-20T14:17:07;5.00;99.90
36594;DHT22;22603;47.900;8.146;2022-11-20T14:19:56;4.90;99.90
36594;DHT22;22603;47.900;8.146;2022-11-20T14:22:50;4.90;99.90
36594;DHT22;22603;47.900;8.146;2022-11-20T14:25:41;5.10;99.90
36594;DHT22;22603;47.900;8.146;2022-11-20T14:28:29;5.20;99.90
36594;DHT22;22603;47.900;8.146;2022-11-20T14:31:24;5.30;99.90
36594;DHT22;22603;47.900;8.146;2022-11-20T14:34:16;5.30;99.90
36594;DHT22;22603;47.900;8.146;2022-11-20T14:37:06;5.10;99.90
36594;DHT22;22603;47.900;8.146;2022-11-20T14:40:05;4.90;99.90
36594;DHT22;22603;47.900;8.146;2022-11-20T14:43:19;4.60;99.90
36594;DHT22;22603;47.900;8.146;2022-11-20T14:46:08;4.50;99.90
36594;DHT22;22603;47.900;8.146;2022-11-20T14:49:00;4.20;99.90
36594;DHT22;22603;47.900;8.146;2022-11-20T14:51:58;4.10;99.90
36594;DHT22;22603;47.900;8.146;2022-11-20T14:54:47;4.00;99.90
36594;DHT22;22603;47.900;8.146;2022-11-20T14:57:36;3.90;99.90
36594;DHT22;22603;47.900;8.146;2022-11-20T15:00:24;3.70;99.90
36594;DHT22;22603;47.900;8.146;2022-11-20T15:03:15;3.70;99.90
36594;DHT22;22603;47.900;8.146;2022-11-20T15:06:04;3.60;99.90
36594;DHT22;22603;47.900;8.146;2022-11-20T15:08:52;3.60;99.90
36594;DHT22;22603;47.900;8.146;2022-11-20T15:11:52;3.60;99.90
36594;DHT22;22603;47.900;8.146;2022-11-20T15:14:41;3.50;99.90
36594;DHT22;22603;47.900;8.146;2022-11-20T15:17:30;3.40;99.90
36594;DHT22;22603;47.900;8.146;2022-11-20T15:20:18;3.40;99.90
36594;DHT22;22603;47.900;8.146;2022-11-20T15:23:10;3.40;99.90
36594;DHT22;22603;47.900;8.146;2022-11-20T15:25:58;3.30;99.90
36594;DHT22;22603;47.900;8.146;2022-11-20T15:28:46;3.30;99.90
36594;DHT22;22603;47.900;8.146;2022-11-20T15:31:37;3.30;99.90
36594;DHT22;22603;47.900;8.146;2022-11-20T15:34:27;3.30;99.90
36594;DHT22;22603;47.900;8.146;2022-11-20T15:37:14;3.20;99.90
36594;DHT22;22603;47.900;8.146;2022-11-20T15:40:02;3.20;99.90
36594;DHT22;22603;47.900;8.146;2022-11-20T15:42:49;3.10;99.90
36594;DHT22;22603;47.900;8.146;2022-11-20T15:46:00;3.00;99.90
36594;DHT22;22603;47.900;8.146;2022-11-20T15:48:51;3.00;99.90
36594;DHT22;22603;47.900;8.146;2022-11-20T15:51:43;3.00;99.90
36594;DHT22;22603;47.900;8.146;2022-11-20T15:54:32;3.00;99.90
36594;DHT22;22603;47.900;8.146;2022-11-20T15:57:25;3.00;99.90
36594;DHT22;22603;47.900;8.146;2022-11-20T16:00:40;3.00;99.90
36594;DHT22;22603;47.900;8.146;2022-11-20T16:03:29;3.10;99.90
36594;DHT22;22603;47.900;8.146;2022-11-20T16:06:18;3.10;99.90
36594;DHT22;22603;47.900;8.146;2022-11-20T16:09:06;3.10;99.90
36594;DHT22;22603;47.900;8.146;2022-11-20T16:11:53;3.10;99.90
36594;DHT22;22603;47.900;8.146;2022-11-20T16:14:41;3.10;99.90
36594;DHT22;22603;47.900;8.146;2022-11-20T16:17:46;3.10;99.90
36594;DHT22;22603;47.900;8.146;2022-11-20T16:20:33;3.20;99.90
36594;DHT22;22603;47.900;8.146;2022-11-20T16:23:21;3.20;99.90
36594;DHT22;22603;47.900;8.146;2022-11-20T16:26:10;3.20;99.90
36594;DHT22;22603;47.900;8.146;2022-11-20T16:28:59;3.20;99.90
36594;DHT22;22603;47.900;8.146;2022-11-20T16:31:46;3.20;99.90
36594;DHT22;22603;47.900;8.146;2022-11-20T16:34:33;3.20;99.90
36594;DHT22;22603;47.900;8.146;2022-11-20T16:37:20;3.20;99.90
36594;DHT22;22603;47.900;8.146;2022-11-20T16:40:11;3.20;99.90
36594;DHT22;22603;47.900;8.146;2022-11-20T16:43:07;3.30;99.90
36594;DHT22;22603;47.900;8.146;2022-11-20T16:45:55;3.30;99.90
36594;DHT22;22603;47.900;8.146;2022-11-20T16:48:42;3.30;99.90
36594;DHT22;22603;47.900;8.146;2022-11-20T16:51:34;3.30;99.90
36594;DHT22;22603;47.900;8.146;2022-11-20T16:54:21;3.30;99.90
36594;DHT22;22603;47.900;8.146;2022-11-20T16:57:10;3.30;99.90
36594;DHT22;22603;47.900;8.146;2022-11-20T16:59:57;3.20;99.90
36594;DHT22;22603;47.900;8.146;2022-11-20T17:02:47;3.20;99.90
36594;DHT22;22603;47.900;8.146;2022-11-20T17:05:34;3.20;99.90
36594;DHT22;22603;47.900;8.146;2022-11-20T17:08:21;3.10;99.90
36594;DHT22;22603;47.900;8.146;2022-11-20T17:11:20;3.10;99.90
36594;DHT22;22603;47.900;8.146;2022-11-20T17:14:23;3.10;99.90
36594;DHT22;22603;47.900;8.146;2022-11-20T17:17:10;3.10;99.90
36594;DHT22;22603;47.900;8.146;2022-11-20T17:19:58;3.10;99.90
36594;DHT22;22603;47.900;8.146;2022-11-20T17:22:45;3.20;99.90
36594;DHT22;22603;47.900;8.146;2022-11-20T17:25:32;3.00;99.90
36594;DHT22;22603;47.900;8.146;2022-11-20T17:28:20;3.30;99.90
36594;DHT22;22603;47.900;8.146;2022-11-20T17:31:10;3.30;99.90
36594;DHT22;22603;47.900;8.146;2022-11-20T17:33:58;3.30;99.90
36594;DHT22;22603;47.900;8.146;2022-11-20T17:36:46;3.40;99.90
36594;DHT22;22603;47.900;8.146;2022-11-20T17:39:33;3.40;99.90
36594;DHT22;22603;47.900;8.146;2022-11-20T17:42:20;3.40;99.90
36594;DHT22;22603;47.900;8.146;2022-11-20T17:45:16;3.40;99.90
36594;DHT22;22603;47.900;8.146;2022-11-20T17:48:06;3.40;99.90
36594;DHT22;22603;47.900;8.146;2022-11-20T17:50:58;3.50;99.90
36594;DHT22;22603;47.900;8.146;2022-11-20T17:53:46;3.50;99.90
36594;DHT22;22603;47.900;8.146;2022-11-20T17:56:34;3.40;99.90
36594;DHT22;22603;47.900;8.146;2022-11-20T17:59:39;3.40;99.90
36594;DHT22;22603;47.900;8.146;2022-11-20T18:02:26;3.40;99.90
36594;DHT22;22603;47.900;8.146;2022-11-20T18:05:15;3.50;99.90
36594;DHT22;22603;47.900;8.146;2022-11-20T18:08:16;3.40;99.90
36594;DHT22;22603;47.900;8.146;2022-11-20T18:11:49;3.40;99.90
36594;DHT22;22603;47.900;8.146;2022-11-20T18:14:36;3.30;99.90
36594;DHT22;22603;47.900;8.146;2022-11-20T18:17:23;3.30;99.90
36594;DHT22;22603;47.900;8.146;2022-11-20T18:20:10;3.20;99.90
36594;DHT22;22603;47.900;8.146;2022-11-20T18:23:15;3.20;99.90
36594;DHT22;22603;47.900;8.146;2022-11-20T18:26:02;3.10;99.90